createdAt,value
2019-02-24T00:02:14.678Z,102538.95
2019-02-24T00:04:54.573Z,102535.16
2019-02-24T00:07:33.757Z,102537.40
2019-02-24T00:10:13.482Z,102538.47
2019-02-24T00:12:55.594Z,102540.22
2019-02-24T00:15:37.078Z,102543.20
2019-02-24T00:18:16.196Z,102549.04
2019-02-24T00:20:55.725Z,102545.50
2019-02-24T00:23:35.020Z,102540.53
2019-02-24T00:26:15.892Z,102536.58
2019-02-24T00:28:55.140Z,102538.21
2019-02-24T00:31:35.547Z,102533.64
2019-02-24T00:34:14.663Z,102527.25
2019-02-24T00:36:54.163Z,102531.02
2019-02-24T00:39:33.408Z,102532.34
2019-02-24T00:42:15.812Z,102533.47
2019-02-24T00:44:55.547Z,102535.80
2019-02-24T00:47:35.007Z,102523.59
2019-02-24T00:50:14.258Z,102530.40
2019-02-24T00:52:55.006Z,102525.44
2019-02-24T00:55:35.661Z,102526.09
2019-02-24T00:58:16.400Z,102518.51
2019-02-24T01:00:58.509Z,102517.70
2019-02-24T01:03:40.322Z,102509.30
2019-02-24T01:06:27.795Z,102508.06
2019-02-24T01:09:08.270Z,102512.45
2019-02-24T01:11:47.871Z,102506.58
2019-02-24T01:14:28.082Z,102498.99
2019-02-24T01:17:07.793Z,102494.09
2019-02-24T01:19:49.940Z,102500.41
2019-02-24T01:22:28.351Z,102506.35
2019-02-24T01:25:07.824Z,102508.86
2019-02-24T01:27:47.651Z,102514.66
2019-02-24T01:30:28.604Z,102514.95
2019-02-24T01:33:08.080Z,102524.61
2019-02-24T01:35:47.559Z,102525.45
2019-02-24T01:38:27.097Z,102518.91
2019-02-24T01:41:07.569Z,102497.13
2019-02-24T01:43:46.885Z,102472.73
2019-02-24T01:46:26.182Z,102474.14
2019-02-24T01:49:05.501Z,102461.41
2019-02-24T01:51:46.102Z,102466.88
2019-02-24T01:54:25.660Z,102466.20
2019-02-24T01:57:06.226Z,102452.75
2019-02-24T01:59:45.557Z,102459.14
2019-02-24T02:02:25.953Z,102474.27
2019-02-24T02:05:05.583Z,102483.06
2019-02-24T02:07:45.127Z,102485.34
2019-02-24T02:10:24.862Z,102483.41
2019-02-24T02:13:04.501Z,102477.61
2019-02-24T02:15:43.726Z,102485.15
2019-02-24T02:18:25.194Z,102494.30
2019-02-24T02:21:04.658Z,102500.70
2019-02-24T02:23:44.210Z,102494.72
2019-02-24T02:26:23.517Z,102497.73
2019-02-24T02:29:03.059Z,102485.36
2019-02-24T02:31:42.310Z,102483.23
2019-02-24T02:34:21.480Z,102487.16
2019-02-24T02:37:01.034Z,102485.52
2019-02-24T02:39:40.539Z,102477.83
2019-02-24T02:42:20.319Z,102471.77
2019-02-24T02:44:59.572Z,102459.41
2019-02-24T02:47:39.148Z,102463.21
2019-02-24T02:50:18.618Z,102463.34
2019-02-24T02:52:58.012Z,102460.44
2019-02-24T02:55:38.965Z,102459.14
2019-02-24T02:58:18.773Z,102463.87
2019-02-24T03:00:58.055Z,102473.38
2019-02-24T03:03:37.601Z,102471.03
2019-02-24T03:06:28.722Z,102461.88
2019-02-24T03:09:11.634Z,102456.45
2019-02-24T03:11:51.063Z,102466.70
2019-02-24T03:14:31.272Z,102476.41
2019-02-24T03:17:10.431Z,102484.53
2019-02-24T03:19:49.921Z,102494.32
2019-02-24T03:22:29.150Z,102487.76
2019-02-24T03:25:08.523Z,102492.91
2019-02-24T03:27:48.129Z,102496.89
2019-02-24T03:30:27.745Z,102489.38
2019-02-24T03:33:10.619Z,102485.89
2019-02-24T03:35:48.074Z,102480.16
2019-02-24T03:38:27.682Z,102481.63
2019-02-24T03:41:07.260Z,102487.64
2019-02-24T03:43:46.506Z,102493.48
2019-02-24T03:46:25.740Z,102491.66
2019-02-24T03:49:05.009Z,102485.70
2019-02-24T03:51:44.531Z,102491.78
2019-02-24T03:54:23.631Z,102502.02
2019-02-24T03:57:02.968Z,102496.97
2019-02-24T03:59:42.206Z,102496.97
2019-02-24T04:02:21.521Z,102485.86
2019-02-24T04:05:01.055Z,102481.70
2019-02-24T04:07:40.495Z,102481.17
2019-02-24T04:10:19.750Z,102487.33
2019-02-24T04:12:59.006Z,102483.64
2019-02-24T04:15:38.431Z,102489.16
2019-02-24T04:18:18.376Z,102482.40
2019-02-24T04:20:57.591Z,102486.72
2019-02-24T04:23:36.987Z,102477.46
2019-02-24T04:26:16.155Z,102472.83
2019-02-24T04:28:55.720Z,102475.16
2019-02-24T04:31:34.874Z,102470.55
2019-02-24T04:34:14.183Z,102485.56
2019-02-24T04:36:53.445Z,102483.03
2019-02-24T04:39:34.135Z,102489.62
2019-02-24T04:42:13.402Z,102485.34
2019-02-24T04:44:52.984Z,102492.64
2019-02-24T04:47:32.488Z,102477.30
2019-02-24T04:50:12.204Z,102478.55
2019-02-24T04:52:51.314Z,102489.22
2019-02-24T04:55:30.677Z,102487.58
2019-02-24T04:58:10.030Z,102466.06
2019-02-24T05:00:49.785Z,102460.42
2019-02-24T05:03:29.040Z,102455.47
2019-02-24T05:06:08.378Z,102457.41
2019-02-24T05:08:47.626Z,102476.97
2019-02-24T05:11:27.072Z,102473.97
2019-02-24T05:14:09.519Z,102471.14
2019-02-24T05:16:48.803Z,102470.80
2019-02-24T05:19:28.065Z,102465.67
2019-02-24T05:22:08.509Z,102467.22
2019-02-24T05:24:47.931Z,102471.16
2019-02-24T05:27:27.306Z,102463.58
2019-02-24T05:30:06.822Z,102445.22
2019-02-24T05:32:46.508Z,102435.57
2019-02-24T05:35:25.960Z,102425.04
2019-02-24T05:38:05.314Z,102425.44
2019-02-24T05:40:44.674Z,102417.66
2019-02-24T05:43:24.318Z,102410.50
2019-02-24T05:46:03.621Z,102407.59
2019-02-24T05:48:45.114Z,102409.17
2019-02-24T05:51:24.652Z,102391.03
2019-02-24T05:54:04.200Z,102389.67
2019-02-24T05:56:43.425Z,102392.77
2019-02-24T05:59:23.066Z,102396.61
2019-02-24T06:02:02.445Z,102397.51
2019-02-24T06:04:43.888Z,102390.47
2019-02-24T06:07:23.149Z,102391.67
2019-02-24T06:10:02.469Z,102402.81
2019-02-24T06:12:43.241Z,102401.36
2019-02-24T06:15:25.936Z,102411.59
2019-02-24T06:18:05.194Z,102422.41
2019-02-24T06:20:44.465Z,102433.44
2019-02-24T06:23:24.913Z,102442.80
2019-02-24T06:26:04.429Z,102446.42
2019-02-24T06:28:43.664Z,102449.38
2019-02-24T06:31:23.205Z,102448.41
2019-02-24T06:34:02.645Z,102442.71
2019-02-24T06:36:41.991Z,102435.32
2019-02-24T06:39:21.131Z,102430.27
2019-02-24T06:42:00.590Z,102428.35
2019-02-24T06:44:39.839Z,102443.87
2019-02-24T06:47:19.183Z,102435.03
2019-02-24T06:49:58.283Z,102438.72
2019-02-24T06:52:37.617Z,102439.23
2019-02-24T06:55:16.749Z,102431.86
2019-02-24T06:57:55.924Z,102421.39
2019-02-24T07:00:34.970Z,102416.82
2019-02-24T07:03:14.180Z,102408.77
2019-02-24T07:05:53.417Z,102413.98
2019-02-24T07:08:32.689Z,102404.91
2019-02-24T07:11:11.999Z,102405.30
2019-02-24T07:13:51.760Z,102409.83
2019-02-24T07:16:31.251Z,102412.00
2019-02-24T07:19:10.380Z,102414.94
2019-02-24T07:21:49.474Z,102415.55
2019-02-24T07:24:28.708Z,102413.72
2019-02-24T07:27:07.785Z,102408.50
2019-02-24T07:29:49.592Z,102404.05
2019-02-24T07:32:28.880Z,102394.39
2019-02-24T07:35:08.266Z,102396.56
2019-02-24T07:37:48.042Z,102406.42
2019-02-24T07:40:27.963Z,102399.68
2019-02-24T07:43:07.184Z,102396.64
2019-02-24T07:45:47.886Z,102413.17
2019-02-24T07:48:27.099Z,102416.59
2019-02-24T07:51:07.316Z,102415.05
2019-02-24T07:53:47.197Z,102412.25
2019-02-24T07:56:28.941Z,102411.62
2019-02-24T07:59:08.588Z,102412.58
2019-02-24T08:01:48.472Z,102410.12
2019-02-24T08:04:28.271Z,102409.06
2019-02-24T08:07:07.441Z,102408.55
2019-02-24T08:09:46.637Z,102417.86
2019-02-24T08:12:26.976Z,102416.61
2019-02-24T08:15:07.284Z,102428.56
2019-02-24T08:17:47.094Z,102431.77
2019-02-24T08:20:26.750Z,102436.86
2019-02-24T08:23:05.918Z,102438.22
2019-02-24T08:25:45.158Z,102437.83
2019-02-24T08:28:25.743Z,102432.34
2019-02-24T08:31:04.836Z,102437.33
2019-02-24T08:33:44.360Z,102435.03
2019-02-24T08:36:23.527Z,102433.62
2019-02-24T08:39:04.027Z,102436.16
2019-02-24T08:41:43.596Z,102448.37
2019-02-24T08:44:22.977Z,102455.42
2019-02-24T08:47:02.697Z,102460.48
2019-02-24T08:49:42.616Z,102460.80
2019-02-24T08:52:22.259Z,102463.23
2019-02-24T08:55:01.687Z,102466.63
2019-02-24T08:57:42.153Z,102461.65
2019-02-24T09:00:22.629Z,102457.23
2019-02-24T09:03:01.863Z,102461.52
2019-02-24T09:05:41.927Z,102466.31
2019-02-24T09:08:21.702Z,102470.87
2019-02-24T09:11:01.867Z,102456.95
2019-02-24T09:13:48.171Z,102460.70
2019-02-24T09:16:28.583Z,102472.03
2019-02-24T09:19:08.571Z,102469.00
2019-02-24T09:21:49.507Z,102469.40
2019-02-24T09:24:32.104Z,102475.41
2019-02-24T09:27:14.488Z,102473.59
2019-02-24T09:29:54.372Z,102455.57
2019-02-24T09:32:34.246Z,102474.58
2019-02-24T09:35:14.348Z,102468.58
2019-02-24T09:37:55.469Z,102470.30
2019-02-24T09:40:35.387Z,102470.41
2019-02-24T09:43:16.421Z,102462.36
2019-02-24T09:45:56.207Z,102462.75
2019-02-24T09:48:36.233Z,102454.14
2019-02-24T09:51:16.065Z,102450.48
2019-02-24T09:53:55.956Z,102448.14
2019-02-24T09:56:35.764Z,102450.25
2019-02-24T09:59:16.075Z,102457.95
2019-02-24T10:01:55.902Z,102449.23
2019-02-24T10:04:37.193Z,102436.27
2019-02-24T10:07:17.040Z,102428.52
2019-02-24T10:09:56.901Z,102427.64
2019-02-24T10:12:36.592Z,102421.88
2019-02-24T10:15:16.655Z,102427.52
2019-02-24T10:17:56.496Z,102432.63
2019-02-24T10:20:36.601Z,102430.93
2019-02-24T10:23:16.365Z,102435.45
2019-02-24T10:25:56.400Z,102429.98
2019-02-24T10:28:36.167Z,102422.53
2019-02-24T10:31:19.906Z,102413.11
2019-02-24T10:33:57.810Z,102406.74
2019-02-24T10:36:41.371Z,102417.84
2019-02-24T10:39:29.459Z,102416.69
2019-02-24T10:42:02.783Z,102414.99
2019-02-24T10:44:42.722Z,102419.02
2019-02-24T10:47:22.530Z,102413.94
2019-02-24T10:50:02.339Z,102413.45
2019-02-24T10:52:42.215Z,102408.44
2019-02-24T10:55:22.117Z,102405.69
2019-02-24T10:58:01.809Z,102398.08
2019-02-24T11:00:41.408Z,102386.85
2019-02-24T11:03:22.248Z,102393.11
2019-02-24T11:06:04.816Z,102383.22
2019-02-24T11:08:44.304Z,102381.06
2019-02-24T11:11:25.375Z,102362.11
2019-02-24T11:14:08.293Z,102377.65
2019-02-24T11:16:49.541Z,102366.42
2019-02-24T11:19:29.169Z,102363.35
2019-02-24T11:22:08.839Z,102351.44
2019-02-24T11:24:48.455Z,102354.00
2019-02-24T11:27:30.461Z,102354.19
2019-02-24T11:30:10.072Z,102343.57
2019-02-24T11:32:51.883Z,102336.19
2019-02-24T11:35:31.598Z,102331.31
2019-02-24T11:38:11.075Z,102332.06
2019-02-24T11:40:50.723Z,102333.05
2019-02-24T11:43:30.369Z,102327.71
2019-02-24T11:46:10.483Z,102338.53
2019-02-24T11:48:52.271Z,102334.58
2019-02-24T11:51:36.248Z,102341.22
2019-02-24T11:54:15.744Z,102339.35
2019-02-24T11:56:56.441Z,102342.27
2019-02-24T11:59:36.054Z,102342.23
2019-02-24T12:02:15.586Z,102340.09
2019-02-24T12:04:55.025Z,102329.12
2019-02-24T12:07:34.497Z,102332.01
2019-02-24T12:10:14.131Z,102340.33
2019-02-24T12:12:53.608Z,102348.59
2019-02-24T12:15:33.190Z,102352.16
2019-02-24T12:18:12.587Z,102353.61
2019-02-24T12:20:52.130Z,102359.92
2019-02-24T12:23:31.812Z,102362.95
2019-02-24T12:26:14.487Z,102361.19
2019-02-24T12:28:54.019Z,102361.94
2019-02-24T12:31:34.443Z,102360.06
2019-02-24T12:34:14.070Z,102355.95
2019-02-24T12:36:55.611Z,102360.44
2019-02-24T12:39:35.213Z,102366.98
2019-02-24T12:42:14.912Z,102356.33
2019-02-24T12:44:54.382Z,102345.88
2019-02-24T12:47:34.976Z,102349.02
2019-02-24T12:50:14.891Z,102361.91
2019-02-24T12:52:55.617Z,102353.23
2019-02-24T12:55:39.922Z,102347.06
2019-02-24T12:58:21.514Z,102353.05
2019-02-24T13:01:01.482Z,102354.42
2019-02-24T13:03:40.990Z,102352.59
2019-02-24T13:06:20.474Z,102341.93
2019-02-24T13:08:59.975Z,102339.30
2019-02-24T13:11:39.679Z,102335.70
2019-02-24T13:14:19.135Z,102333.67
2019-02-24T13:16:59.789Z,102329.83
2019-02-24T13:19:39.252Z,102327.30
2019-02-24T13:22:18.645Z,102331.46
2019-02-24T13:24:58.083Z,102327.30
2019-02-24T13:27:39.023Z,102312.34
2019-02-24T13:30:19.700Z,102308.42
2019-02-24T13:32:59.268Z,102305.66
2019-02-24T13:35:40.571Z,102307.58
2019-02-24T13:38:20.130Z,102299.25
2019-02-24T13:40:59.612Z,102297.66
2019-02-24T13:43:39.182Z,102301.08
2019-02-24T13:46:18.668Z,102296.03
2019-02-24T13:48:59.264Z,102300.90
2019-02-24T13:51:40.543Z,102301.22
2019-02-24T13:54:21.516Z,102294.70
2019-02-24T13:57:00.903Z,102283.15
2019-02-24T13:59:40.400Z,102280.00
2019-02-24T14:02:24.094Z,102287.86
2019-02-24T14:05:00.978Z,102286.56
2019-02-24T14:07:40.518Z,102285.80
2019-02-24T14:10:19.942Z,102289.95
2019-02-24T14:12:59.340Z,102293.74
2019-02-24T14:15:38.688Z,102298.34
2019-02-24T14:18:18.123Z,102296.48
2019-02-24T14:20:57.665Z,102298.98
2019-02-24T14:23:37.196Z,102294.55
2019-02-24T14:26:16.544Z,102291.52
2019-02-24T14:28:57.332Z,102287.53
2019-02-24T14:31:37.383Z,102280.06
2019-02-24T14:34:18.082Z,102281.81
2019-02-24T14:36:59.450Z,102287.96
2019-02-24T14:39:38.862Z,102294.52
2019-02-24T14:42:18.512Z,102293.98
2019-02-24T14:44:58.169Z,102297.72
2019-02-24T14:47:37.645Z,102308.77
2019-02-24T14:50:17.077Z,102298.69
2019-02-24T14:52:56.586Z,102300.78
2019-02-24T14:55:37.052Z,102306.98
2019-02-24T14:58:16.715Z,102309.02
2019-02-24T15:00:56.125Z,102313.19
2019-02-24T15:03:35.729Z,102320.20
2019-02-24T15:06:15.384Z,102324.52
2019-02-24T15:08:57.218Z,102326.23
2019-02-24T15:11:37.786Z,102334.55
2019-02-24T15:14:17.737Z,102339.47
2019-02-24T15:16:57.112Z,102345.43
2019-02-24T15:19:36.903Z,102339.67
2019-02-24T15:22:19.573Z,102335.53
2019-02-24T15:24:59.281Z,102327.93
2019-02-24T15:27:38.936Z,102329.92
2019-02-24T15:30:26.270Z,102318.84
2019-02-24T15:33:06.263Z,102307.52
2019-02-24T15:35:46.202Z,102301.92
2019-02-24T15:38:29.251Z,102296.34
2019-02-24T15:41:09.166Z,102286.80
2019-02-24T15:43:49.046Z,102278.59
2019-02-24T15:46:28.871Z,102272.80
2019-02-24T15:49:08.533Z,102271.52
2019-02-24T15:51:48.273Z,102291.95
2019-02-24T15:54:27.920Z,102302.17
2019-02-24T15:57:07.973Z,102309.55
2019-02-24T15:59:47.727Z,102313.72
2019-02-24T16:02:27.751Z,102303.11
2019-02-24T16:05:07.976Z,102306.41
2019-02-24T16:07:49.169Z,102308.62
2019-02-24T16:10:28.961Z,102305.01
2019-02-24T16:13:16.731Z,102305.22
2019-02-24T16:15:52.370Z,102306.31
2019-02-24T16:18:32.387Z,102300.63
2019-02-24T16:21:12.517Z,102297.52
2019-02-24T16:23:53.842Z,102294.55
2019-02-24T16:26:35.391Z,102305.91
2019-02-24T16:29:15.265Z,102302.83
2019-02-24T16:31:56.521Z,102303.10
2019-02-24T16:34:36.340Z,102304.86
2019-02-24T16:37:18.703Z,102312.75
2019-02-24T16:39:58.573Z,102310.48
2019-02-24T16:42:40.228Z,102305.03
2019-02-24T16:45:20.381Z,102313.77
2019-02-24T16:48:00.168Z,102316.04
2019-02-24T16:50:42.703Z,102321.91
2019-02-24T16:53:24.543Z,102322.05
2019-02-24T16:56:04.136Z,102315.17
2019-02-24T16:58:43.919Z,102309.72
2019-02-24T17:01:23.938Z,102314.95
2019-02-24T17:04:03.780Z,102309.44
2019-02-24T17:06:43.538Z,102314.28
2019-02-24T17:09:23.498Z,102318.69
2019-02-24T17:12:03.649Z,102314.69
2019-02-24T17:14:43.537Z,102318.69
2019-02-24T17:17:24.666Z,102316.96
2019-02-24T17:20:05.226Z,102318.22
2019-02-24T17:22:45.157Z,102312.05
2019-02-24T17:25:25.687Z,102314.15
2019-02-24T17:28:05.618Z,102312.87
2019-02-24T17:30:45.405Z,102309.08
2019-02-24T17:33:30.040Z,102324.15
2019-02-24T17:36:08.105Z,102330.72
2019-02-24T17:38:48.221Z,102333.45
2019-02-24T17:41:28.037Z,102329.80
2019-02-24T17:44:16.234Z,102333.53
2019-02-24T17:46:56.012Z,102336.41
2019-02-24T17:49:36.394Z,102341.90
2019-02-24T17:52:18.259Z,102349.59
2019-02-24T17:55:03.407Z,102357.28
2019-02-24T17:57:43.234Z,102357.70
2019-02-24T18:00:28.936Z,102355.53
2019-02-24T18:03:09.215Z,102348.89
2019-02-24T18:05:49.430Z,102350.22
2019-02-24T18:08:31.195Z,102349.34
2019-02-24T18:11:11.130Z,102354.98
2019-02-24T18:13:50.890Z,102345.90
2019-02-24T18:16:33.610Z,102344.55
2019-02-24T18:19:13.641Z,102346.98
2019-02-24T18:21:55.899Z,102350.02
2019-02-24T18:24:37.750Z,102346.89
2019-02-24T18:27:17.837Z,102340.70
2019-02-24T18:30:01.182Z,102342.66
2019-02-24T18:32:40.686Z,102347.16
2019-02-24T18:35:20.665Z,102339.08
2019-02-24T18:38:01.134Z,102339.22
2019-02-24T18:40:41.067Z,102333.29
2019-02-24T18:43:21.192Z,102335.66
2019-02-24T18:46:01.469Z,102332.36
2019-02-24T18:48:41.661Z,102327.03
2019-02-24T18:51:22.457Z,102327.30
2019-02-24T18:54:02.566Z,102324.60
2019-02-24T18:56:42.564Z,102323.45
2019-02-24T18:59:22.511Z,102320.52
2019-02-24T19:02:02.946Z,102335.92
2019-02-24T19:04:42.897Z,102337.48
2019-02-24T19:07:22.749Z,102343.86
2019-02-24T19:10:03.038Z,102341.55
2019-02-24T19:12:42.943Z,102343.75
2019-02-24T19:15:29.509Z,102337.50
2019-02-24T19:18:09.777Z,102343.13
2019-02-24T19:20:49.583Z,102346.88
2019-02-24T19:23:31.455Z,102354.14
2019-02-24T19:26:11.545Z,102346.70
2019-02-24T19:28:51.703Z,102343.17
2019-02-24T19:31:33.616Z,102345.94
2019-02-24T19:34:13.827Z,102346.91
2019-02-24T19:36:53.063Z,102350.27
2019-02-24T19:39:33.102Z,102358.57
2019-02-24T19:42:12.886Z,102366.41
2019-02-24T19:44:52.996Z,102366.20
2019-02-24T19:47:32.942Z,102368.36
2019-02-24T19:50:15.453Z,102371.73
2019-02-24T19:52:55.203Z,102374.55
2019-02-24T19:55:34.665Z,102377.95
2019-02-24T19:58:14.705Z,102385.68
2019-02-24T20:00:55.352Z,102386.94
2019-02-24T20:03:35.194Z,102391.85
2019-02-24T20:06:14.676Z,102394.55
2019-02-24T20:08:56.624Z,102398.84
2019-02-24T20:11:37.223Z,102398.40
2019-02-24T20:14:18.604Z,102403.08
2019-02-24T20:16:58.135Z,102406.26
2019-02-24T20:19:37.331Z,102407.60
2019-02-24T20:22:16.924Z,102401.12
2019-02-24T20:24:56.843Z,102393.80
2019-02-24T20:27:37.019Z,102390.49
2019-02-24T20:30:23.399Z,102398.52
2019-02-24T20:33:04.501Z,102397.02
2019-02-24T20:35:43.831Z,102393.20
2019-02-24T20:38:23.062Z,102396.58
2019-02-24T20:41:03.596Z,102402.83
2019-02-24T20:43:43.429Z,102399.67
2019-02-24T20:46:24.625Z,102408.64
2019-02-24T20:49:04.555Z,102403.70
2019-02-24T20:51:43.844Z,102404.59
2019-02-24T20:54:24.090Z,102398.94
2019-02-24T20:57:03.280Z,102399.37
2019-02-24T20:59:42.852Z,102397.31
2019-02-24T21:02:22.768Z,102394.22
2019-02-24T21:05:05.153Z,102391.70
2019-02-24T21:07:48.751Z,102396.77
2019-02-24T21:10:28.502Z,102397.38
2019-02-24T21:13:08.322Z,102408.48
2019-02-24T21:15:48.289Z,102404.88
2019-02-24T21:18:29.903Z,102401.61
2019-02-24T21:21:10.153Z,102400.81
2019-02-24T21:23:50.505Z,102401.09
2019-02-24T21:26:30.611Z,102398.80
2019-02-24T21:29:10.018Z,102395.25
2019-02-24T21:31:51.918Z,102396.27
2019-02-24T21:34:31.576Z,102397.81
2019-02-24T21:37:11.172Z,102403.91
2019-02-24T21:39:52.038Z,102404.53
2019-02-24T21:42:33.638Z,102400.83
2019-02-24T21:45:16.439Z,102393.91
2019-02-24T21:47:57.587Z,102393.43
2019-02-24T21:50:37.075Z,102389.27
2019-02-24T21:53:16.752Z,102389.87
2019-02-24T21:55:55.975Z,102388.16
2019-02-24T21:58:37.251Z,102392.14
2019-02-24T22:01:16.411Z,102402.34
2019-02-24T22:03:56.082Z,102407.38
2019-02-24T22:06:35.957Z,102407.66
2019-02-24T22:09:16.034Z,102412.99
2019-02-24T22:11:55.243Z,102409.61
2019-02-24T22:14:34.443Z,102409.87
2019-02-24T22:17:14.412Z,102404.62
2019-02-24T22:19:53.822Z,102413.46
2019-02-24T22:22:33.573Z,102423.13
2019-02-24T22:25:14.046Z,102424.16
2019-02-24T22:27:53.795Z,102419.70
2019-02-24T22:30:34.219Z,102416.72
2019-02-24T22:33:13.965Z,102427.53
2019-02-24T22:35:53.246Z,102439.94
2019-02-24T22:38:32.538Z,102438.53
2019-02-24T22:41:15.822Z,102435.80
2019-02-24T22:43:58.069Z,102428.26
2019-02-24T22:46:37.527Z,102429.57
2019-02-24T22:49:17.301Z,102431.08
2019-02-24T22:51:57.030Z,102428.09
2019-02-24T22:54:39.234Z,102434.14
2019-02-24T22:57:19.357Z,102431.62
2019-02-24T22:59:58.535Z,102431.67
2019-02-24T23:02:38.657Z,102433.33
2019-02-24T23:05:18.540Z,102428.42
2019-02-24T23:07:59.145Z,102425.34
2019-02-24T23:10:38.464Z,102418.94
2019-02-24T23:13:17.738Z,102421.36
2019-02-24T23:15:56.911Z,102424.42
2019-02-24T23:18:36.446Z,102420.31
2019-02-24T23:21:18.072Z,102420.62
2019-02-24T23:23:57.357Z,102417.48
2019-02-24T23:26:40.191Z,102416.37
2019-02-24T23:29:20.228Z,102418.31
2019-02-24T23:31:59.582Z,102421.72
2019-02-24T23:34:40.283Z,102422.63
2019-02-24T23:37:20.141Z,102417.06
2019-02-24T23:39:59.349Z,102419.36
2019-02-24T23:42:38.627Z,102413.03
2019-02-24T23:45:18.199Z,102408.81
2019-02-24T23:47:58.421Z,102407.52
2019-02-24T23:50:38.436Z,102408.05
2019-02-24T23:53:18.883Z,102398.69
2019-02-24T23:55:58.335Z,102401.29
2019-02-24T23:58:38.184Z,102393.69
